Kermit, TX

12:14 AM CDT on October 01, 2014 (GMT -0500)
Odessa-Schlemeyer | Change Station
CLOSE
Current Station
Airport
Location: Odessa,
Elevation: 2999 ft
Nearby Weather Stations

Elev 2999 ft 31.92 °N, 102.39 °W | Updated 21 minutes ago

Clear
Clear
75 °F
Feels Like 75 °F
N
12
Wind Variable Wind from SSW

Today
High -- | Low -- °F
--% Chance of Precip.
Yesterday
High -- | Low -- °F
Precip. -- in
7:46 AM 7:37 PM
Waxing Crescent, 43% visible
Pressure 29.70 in
Visibility 10.0 miles
Clouds Few 8000 ft
Dew Point 63 °F
Humidity 66%
Rainfall 0.00 in
Snow Depth Not available.
UV 0 out of 12
Pollen 8.30 out of 12
Air Quality Not available.
Flu Activity Not available.
METAR KODO 010453Z AUTO 20010KT 10SM FEW080 24/17 A2984 RMK AO2 SLP056 T02390172

More Conditions Fewer Conditions

Pressure 29.70 in
Visibility 10.0 miles
Clouds Few 8000 ft
Dew Point 63 °F
Humidity 66%
Rainfall 0.00 in
Snow Depth Not available.
UV 0 out of 12
Pollen 8.30 out of 12
Air Quality Not available.
Flu Activity Not available.
METAR KODO 010453Z AUTO 20010KT 10SM FEW080 24/17 A2984 RMK AO2 SLP056 T02390172

More Conditions Fewer Conditions

10-Day Weather Forecast

Almanac

Astronomy

Oct. 01, 2014 Rise Set
Actual Time 7:46 AM CDT 7:37 PM CDT
Civil Twilight 7:21 AM CDT 8:01 PM CDT
Nautical Twilight 6:53 AM CDT 8:29 PM CDT
Astronomical Twilight 6:25 AM CDT 8:58 PM CDT
Moon 2:34 PM CDT 12:26 AM CDT
Length of Visible Light 12h 39m
Length of Day
11h 50m
Tomorrow will be 1m 55s shorter.
Waxing Crescent, 43% of the Moon is Illuminated
Today
Waxing Crescent
Oct 1
First Quarter
Oct 8
Full
Oct 15
Last Quarter
Oct 23
New

Today's Extremes

State Highs State Lows

Community

WunderPhotos

Upload Photos

1,757,851 photos uploaded!

Nearby

Snow Depth

Station Depth Elevation
No new snow has been reported.

Earthquake Activity

City Distance Mag. Time & Date
No recent earthquake activity has been reported nearby.
Minimum magnitude displayed is 2.5.

Coastal Water Temperatures

Place Temperature
No Stations Reporting

Nearby Weather Stations